createdAt,value
2018-10-05T00:05:06.349Z,96387.34
2018-10-05T00:07:36.060Z,96388.56
2018-10-05T00:10:05.659Z,96392.43
2018-10-05T00:12:35.659Z,96382.38
2018-10-05T00:15:05.374Z,96380.70
2018-10-05T00:17:34.915Z,96374.02
2018-10-05T00:20:04.635Z,96373.55
2018-10-05T00:22:34.089Z,96372.14
2018-10-05T00:25:03.768Z,96363.36
2018-10-05T00:27:33.442Z,96364.30
2018-10-05T00:30:03.264Z,96356.00
2018-10-05T00:32:32.834Z,96361.05
2018-10-05T00:35:02.943Z,96352.52
2018-10-05T00:37:32.515Z,96355.14
2018-10-05T00:57:25.430Z,96366.50
2018-10-05T00:59:54.994Z,96367.27
2018-10-05T01:02:24.507Z,96362.58
2018-10-05T01:04:54.460Z,96362.70
2018-10-05T01:07:24.395Z,96367.50
2018-10-05T01:09:54.006Z,96359.66
2018-10-05T01:12:24.023Z,96355.17
2018-10-05T01:14:53.907Z,96353.44
2018-10-05T01:17:23.580Z,96353.27
2018-10-05T01:37:14.882Z,96358.48
2018-10-05T01:57:08.144Z,96377.05
2018-10-05T01:59:37.880Z,96378.85
2018-10-05T02:02:07.423Z,96380.67
2018-10-05T02:04:37.176Z,96371.72
2018-10-05T02:07:07.232Z,96375.63
2018-10-05T02:09:36.945Z,96372.63
2018-10-05T02:12:06.656Z,96381.97
2018-10-05T02:31:58.966Z,96389.72
2018-10-05T02:34:28.349Z,96393.35
2018-10-05T02:36:57.890Z,96394.24
2018-10-05T02:39:27.879Z,96394.73
2018-10-05T02:41:57.539Z,96397.35
2018-10-05T02:44:27.137Z,96396.65
2018-10-05T02:46:57.337Z,96400.97
2018-10-05T02:49:26.951Z,96397.95
2018-10-05T02:51:56.906Z,96389.94
2018-10-05T02:54:26.588Z,96401.08
2018-10-05T02:56:56.143Z,96395.85
2018-10-05T02:59:25.798Z,96397.56
2018-10-05T03:02:06.597Z,96404.05
2018-10-05T03:21:57.798Z,96401.33
2018-10-05T03:24:27.563Z,96400.14
2018-10-05T03:26:57.180Z,96406.05
2018-10-05T03:29:26.687Z,96402.23
2018-10-05T03:31:56.797Z,96402.43
2018-10-05T03:34:26.523Z,96403.20
2018-10-05T03:36:56.178Z,96402.06
2018-10-05T03:39:26.361Z,96407.81
2018-10-05T03:59:17.630Z,96421.20
2018-10-05T04:01:47.399Z,96414.65
2018-10-05T04:04:16.887Z,96407.07
2018-10-05T04:06:46.382Z,96413.27
2018-10-05T04:09:16.261Z,96427.37
2018-10-05T04:11:45.804Z,96422.30
2018-10-05T04:14:15.521Z,96421.47
2018-10-05T04:16:45.590Z,96417.73
2018-10-05T04:19:15.236Z,96416.22
2018-10-05T04:21:44.999Z,96418.01
2018-10-05T04:24:14.673Z,96410.52
2018-10-05T04:26:44.399Z,96413.69
2018-10-05T04:29:14.060Z,96420.25
2018-10-05T04:31:43.712Z,96410.04
2018-10-05T04:34:13.388Z,96411.41
2018-10-05T04:36:42.908Z,96408.60
2018-10-05T04:56:34.283Z,96438.06
2018-10-05T04:59:04.122Z,96436.70
2018-10-05T05:01:33.485Z,96441.84
2018-10-05T05:04:03.496Z,96445.96
2018-10-05T05:06:33.321Z,96442.19
2018-10-05T05:32:12.741Z,96463.25
2018-10-05T05:34:42.355Z,96465.74
2018-10-05T05:37:12.184Z,96478.41
2018-10-05T05:57:04.773Z,96489.69
2018-10-05T05:59:34.405Z,96497.14
2018-10-05T06:19:27.733Z,96497.38
2018-10-05T06:21:57.630Z,96498.78
2018-10-05T06:24:27.476Z,96494.81
2018-10-05T06:26:57.390Z,96493.72
2018-10-05T06:29:27.179Z,96496.91
2018-10-05T06:31:56.985Z,96496.13
2018-10-05T06:34:27.047Z,96488.55
2018-10-05T06:36:56.789Z,96490.09
2018-10-05T06:39:26.635Z,96487.13
2018-10-05T06:41:56.495Z,96488.80
2018-10-05T06:44:26.391Z,96484.62
2018-10-05T06:46:56.304Z,96487.61
2018-10-05T07:06:48.881Z,96481.07
2018-10-05T07:26:40.404Z,96461.85
2018-10-05T07:29:10.278Z,96464.78
2018-10-05T07:49:01.757Z,96467.72
2018-10-05T07:51:31.494Z,96474.18
2018-10-05T07:54:01.174Z,96472.33
2018-10-05T07:56:30.999Z,96475.34
2018-10-05T07:59:01.059Z,96463.31
2018-10-05T08:01:30.745Z,96452.00
2018-10-05T08:04:00.666Z,96456.05
2018-10-05T08:06:30.749Z,96461.56
2018-10-05T08:09:00.547Z,96453.80
2018-10-05T08:11:30.353Z,96449.48
2018-10-05T08:14:00.145Z,96444.28
2018-10-05T08:16:29.992Z,96444.50
2018-10-05T08:36:22.338Z,96435.99
2018-10-05T08:38:52.241Z,96428.63
2018-10-05T08:41:22.101Z,96428.67
2018-10-05T08:43:52.271Z,96414.39
2018-10-05T08:46:22.137Z,96417.88
2018-10-05T08:48:51.886Z,96418.39
2018-10-05T08:51:22.184Z,96411.63
2018-10-05T08:53:51.921Z,96410.12
2018-10-05T08:56:21.742Z,96406.73
2018-10-05T08:58:52.014Z,96397.26
2018-10-05T09:01:21.817Z,96398.03
2018-10-05T09:03:51.584Z,96394.03
2018-10-05T09:06:21.522Z,96397.13
2018-10-05T09:08:51.357Z,96393.46
2018-10-05T09:11:21.238Z,96386.16
2018-10-05T09:13:51.442Z,96387.34
2018-10-05T09:16:21.215Z,96377.41
2018-10-05T09:18:50.978Z,96377.14
2018-10-05T09:21:21.156Z,96374.86
2018-10-05T09:23:50.906Z,96370.43
2018-10-05T09:26:20.863Z,96362.54
2018-10-05T09:28:50.870Z,96355.91
2018-10-05T09:31:20.605Z,96352.25
2018-10-05T09:33:50.324Z,96343.22
2018-10-05T09:36:20.246Z,96349.83
2018-10-05T09:38:49.952Z,96351.66
2018-10-05T09:41:19.838Z,96345.56
2018-10-05T09:43:49.867Z,96340.98
2018-10-05T09:46:19.640Z,96342.64
2018-10-05T09:48:49.397Z,96336.44
2018-10-05T09:51:19.128Z,96328.28
2018-10-05T09:53:48.914Z,96331.05
2018-10-05T09:56:18.593Z,96334.32
2018-10-05T09:58:48.684Z,96321.55
2018-10-05T10:01:23.712Z,96315.42
2018-10-05T10:21:15.446Z,96303.23
2018-10-05T10:23:45.198Z,96282.06
2018-10-05T10:26:14.959Z,96279.39
2018-10-05T10:28:45.325Z,96278.06
2018-10-05T10:31:14.974Z,96269.94
2018-10-05T10:33:44.824Z,96266.70
2018-10-05T10:36:15.049Z,96254.94
2018-10-05T10:38:44.905Z,96261.81
2018-10-05T10:58:36.836Z,96222.96
2018-10-05T11:01:06.808Z,96227.89
2018-10-05T11:03:36.525Z,96220.39
2018-10-05T11:06:06.288Z,96210.58
2018-10-05T11:08:36.246Z,96216.56
2018-10-05T11:11:06.202Z,96207.78
2018-10-05T11:13:36.182Z,96203.47
2018-10-05T11:33:28.070Z,96201.20
2018-10-05T11:35:57.952Z,96190.53
2018-10-05T11:55:50.051Z,96162.84
2018-10-05T11:58:19.722Z,96163.64
2018-10-05T12:00:49.527Z,96164.47
2018-10-05T12:03:19.823Z,96168.09
2018-10-05T12:05:49.561Z,96160.70
2018-10-05T12:08:19.327Z,96159.99
2018-10-05T12:10:49.418Z,96162.64
2018-10-05T12:13:19.296Z,96159.32
2018-10-05T12:15:49.130Z,96155.05
2018-10-05T12:35:40.601Z,96141.43
2018-10-05T12:38:10.282Z,96136.99
2018-10-05T12:40:40.079Z,96131.05
2018-10-05T12:43:10.401Z,96130.19
2018-10-05T12:45:40.335Z,96125.76
2018-10-05T12:48:10.121Z,96122.20
2018-10-05T12:50:40.140Z,96124.09
2018-10-05T12:53:10.088Z,96114.84
2018-10-05T12:55:39.893Z,96115.59
2018-10-05T12:58:09.999Z,96118.56
2018-10-05T13:32:48.367Z,96087.21
2018-10-05T13:52:39.983Z,96078.48
2018-10-05T14:12:31.622Z,96084.37
2018-10-05T14:15:01.570Z,96082.75
2018-10-05T14:34:53.800Z,96095.56
2018-10-05T14:37:23.564Z,96093.56
2018-10-05T14:39:53.471Z,96087.81
2018-10-05T14:42:23.261Z,96084.03
2018-10-05T14:44:53.153Z,96089.91
2018-10-05T14:47:22.816Z,96097.77
2018-10-05T14:49:52.822Z,96096.75
2018-10-05T14:52:25.423Z,96094.62
2018-10-05T14:54:56.510Z,96092.77
2018-10-05T14:57:26.325Z,96096.08
2018-10-05T15:17:19.010Z,96111.89
2018-10-05T15:19:48.738Z,96115.27
2018-10-05T15:22:18.509Z,96119.05
2018-10-05T15:24:48.327Z,96119.16
2018-10-05T15:27:18.881Z,96120.84
2018-10-05T15:29:49.739Z,96124.57
2018-10-05T15:32:19.440Z,96128.39
2018-10-05T15:34:49.175Z,96124.19
2018-10-05T15:37:19.069Z,96127.04
2018-10-05T15:39:48.773Z,96128.18
2018-10-05T15:42:18.489Z,96125.73
2018-10-05T15:44:48.913Z,96128.64
2018-10-05T15:47:18.481Z,96134.47
2018-10-05T15:49:48.229Z,96135.80
2018-10-05T15:52:18.151Z,96136.39
2018-10-05T15:54:48.107Z,96138.59
2018-10-05T15:57:18.064Z,96138.47
2018-10-05T15:59:48.050Z,96144.80
2018-10-05T16:19:39.680Z,96145.33
2018-10-05T16:22:09.471Z,96155.26
2018-10-05T16:24:40.363Z,96149.19
2018-10-05T16:27:10.960Z,96148.94
2018-10-05T16:29:40.818Z,96153.25
2018-10-05T16:32:11.285Z,96156.43
2018-10-05T16:34:41.314Z,96153.00
2018-10-05T16:37:11.189Z,96153.06
2018-10-05T16:57:03.021Z,96170.92
2018-10-05T16:59:32.753Z,96174.37
2018-10-05T17:02:02.745Z,96176.75
2018-10-05T17:04:32.560Z,96176.73
2018-10-05T17:07:02.805Z,96178.33
2018-10-05T17:09:32.882Z,96188.91
2018-10-05T17:12:02.850Z,96186.00
2018-10-05T17:14:32.551Z,96187.57
2018-10-05T17:34:24.955Z,96194.44
2018-10-05T17:36:54.791Z,96190.42
2018-10-05T17:39:24.646Z,96198.64
2018-10-05T17:41:54.424Z,96199.11
2018-10-05T17:44:24.157Z,96203.86
2018-10-05T17:46:53.974Z,96196.95
2018-10-05T18:06:45.679Z,96224.42
2018-10-05T18:09:15.419Z,96219.73
2018-10-05T18:11:45.600Z,96222.27
2018-10-05T18:14:17.893Z,96232.02
2018-10-05T18:34:09.899Z,96217.98
2018-10-05T18:54:00.631Z,96221.85
2018-10-05T18:56:41.379Z,96222.70
2018-10-05T18:59:11.669Z,96225.33
2018-10-05T19:01:41.575Z,96216.82
2018-10-05T19:04:11.463Z,96223.17
2018-10-05T19:06:41.590Z,96226.20
2018-10-05T19:09:11.375Z,96229.17
2018-10-05T19:11:41.370Z,96235.22
2018-10-05T19:14:11.432Z,96235.49
2018-10-05T19:16:41.222Z,96238.13
2018-10-05T19:36:33.525Z,96224.84
2018-10-05T19:39:03.467Z,96239.19
2018-10-05T19:41:33.026Z,96236.77
2018-10-05T19:44:03.333Z,96239.81
2018-10-05T20:03:55.571Z,96243.66
2018-10-05T20:06:25.729Z,96244.13
2018-10-05T20:08:55.677Z,96248.64
2018-10-05T20:11:25.622Z,96246.00
2018-10-05T20:31:17.154Z,96246.44
2018-10-05T20:33:46.876Z,96239.00
2018-10-05T20:36:16.555Z,96239.97
2018-10-05T20:38:46.444Z,96244.45
2018-10-05T20:41:16.001Z,96241.17
2018-10-05T20:43:45.474Z,96239.42
2018-10-05T20:46:15.423Z,96238.05
2018-10-05T20:48:45.195Z,96242.05
2018-10-05T20:51:15.099Z,96246.51
2018-10-05T20:53:44.885Z,96246.06
2018-10-05T20:56:14.691Z,96245.23
2018-10-05T20:58:44.584Z,96246.25
2018-10-05T21:01:14.485Z,96246.33
2018-10-05T21:03:44.310Z,96245.86
2018-10-05T21:06:14.233Z,96245.86
2018-10-05T21:08:44.494Z,96253.75
2018-10-05T21:11:14.075Z,96252.53
2018-10-05T21:13:43.819Z,96258.93
2018-10-05T21:16:13.860Z,96254.31
2018-10-05T21:18:43.717Z,96253.11
2018-10-05T21:21:13.639Z,96258.16
2018-10-05T21:23:43.535Z,96256.88
2018-10-05T21:26:13.453Z,96253.95
2018-10-05T21:28:43.273Z,96258.25
2018-10-05T21:31:13.271Z,96256.34
2018-10-05T21:33:43.178Z,96261.55
2018-10-05T21:36:12.935Z,96265.61
2018-10-05T21:38:43.102Z,96264.83
2018-10-05T21:41:12.879Z,96265.78
2018-10-05T21:43:42.957Z,96273.67
2018-10-05T21:46:13.040Z,96269.91
2018-10-05T21:48:42.871Z,96263.59
2018-10-05T21:51:12.721Z,96256.19
2018-10-05T21:53:43.888Z,96259.00
2018-10-05T21:56:13.506Z,96254.55
2018-10-05T21:58:43.289Z,96249.53
2018-10-05T22:01:13.194Z,96256.84
2018-10-05T22:03:47.270Z,96254.97
2018-10-05T22:06:18.758Z,96250.19
2018-10-05T22:08:48.565Z,96261.14
2018-10-05T22:11:18.485Z,96246.98
2018-10-05T22:13:48.400Z,96249.28
2018-10-05T22:16:18.261Z,96247.91
2018-10-05T22:18:48.010Z,96251.85
2018-10-05T22:21:18.102Z,96247.64
2018-10-05T22:23:47.614Z,96246.73
2018-10-05T22:26:17.452Z,96251.34
2018-10-05T22:28:47.527Z,96244.70
2018-10-05T22:31:17.043Z,96252.00
2018-10-05T22:33:46.725Z,96245.24
2018-10-05T22:36:16.970Z,96239.42
2018-10-05T22:38:46.562Z,96229.83
2018-10-05T22:41:16.140Z,96236.09
2018-10-05T22:43:46.098Z,96236.05
2018-10-05T22:46:15.814Z,96238.68
2018-10-05T22:48:45.480Z,96235.25
2018-10-05T22:51:15.498Z,96243.19
2018-10-05T22:53:45.179Z,96237.47
2018-10-05T22:56:15.033Z,96236.92
2018-10-05T22:58:44.980Z,96244.09
2018-10-05T23:01:14.682Z,96243.19
2018-10-05T23:03:44.506Z,96240.53
2018-10-05T23:06:14.182Z,96245.16
2018-10-05T23:08:44.087Z,96249.09
2018-10-05T23:11:14.906Z,96242.35
2018-10-05T23:13:44.837Z,96241.78
2018-10-05T23:16:16.108Z,96244.45
2018-10-05T23:18:45.710Z,96246.18
2018-10-05T23:21:15.405Z,96251.70
2018-10-05T23:23:45.434Z,96255.83
2018-10-05T23:26:15.229Z,96246.34
2018-10-05T23:28:45.229Z,96246.75
2018-10-05T23:31:15.558Z,96242.02
2018-10-05T23:33:45.589Z,96239.16
2018-10-05T23:36:15.496Z,96234.38
2018-10-05T23:38:45.416Z,96232.89
2018-10-05T23:41:15.230Z,96234.31
2018-10-05T23:43:45.168Z,96230.14
2018-10-05T23:46:15.237Z,96223.31
2018-10-05T23:48:44.995Z,96216.52
2018-10-05T23:51:15.013Z,96217.99
2018-10-05T23:53:46.113Z,96223.71
2018-10-05T23:56:15.795Z,96230.73
2018-10-05T23:58:45.378Z,96231.01
